Kaolack Airport


Codes: GOOK/KLC
Name: Kaolack Airport
City: Kaolack
Country: Senegal
Elevation: 26 ft.
Wikipedia:

Photos at Kaolack Airport


   Photos courtesy of SpottingLog. You can add your own sightings and photos by signing up for a free trial today.



No photos found.

Weather at Kaolack Airport


Time (UTC)DescriptionTempratureWindCloud coverageVisibilityPressureHumidity
19-Apr-2024 06:00Clear Sky27°C9 mph, N1%10000m1008hPa13%
19-Apr-2024 09:00Clear Sky31°C13 mph, NE3%10000m1009hPa8%
19-Apr-2024 12:00Clear Sky42°C13 mph, NE4%10000m1009hPa4%
19-Apr-2024 15:00Clear Sky44°C9 mph, NE8%10000m1006hPa4%
19-Apr-2024 18:00Clear Sky43°C7 mph, NE8%10000m1005hPa4%
19-Apr-2024 21:00Clear Sky30°C9 mph, NW10%10000m1008hPa18%
20-Apr-2024 00:00Scattered Clouds25°C9 mph, NW28%10000m1009hPa30%
20-Apr-2024 03:00Overcast Clouds23°C7 mph, W92%10000m1008hPa41%
20-Apr-2024 06:00Overcast Clouds21°C4 mph, W95%10000m1009hPa54%
20-Apr-2024 09:00Overcast Clouds27°C7 mph, N100%10000m1010hPa38%
20-Apr-2024 12:00Overcast Clouds38°C7 mph, N100%10000m1009hPa13%
20-Apr-2024 15:00Overcast Clouds42°C9 mph, NW100%10000m1005hPa7%
20-Apr-2024 18:00Overcast Clouds39°C18 mph, SW100%10000m1005hPa14%
20-Apr-2024 21:00Overcast Clouds27°C11 mph, NW100%10000m1008hPa36%
21-Apr-2024 00:00Broken Clouds22°C7 mph, NW79%10000m1009hPa63%
21-Apr-2024 03:00Broken Clouds20°C4 mph, NW53%10000m1008hPa70%
21-Apr-2024 06:00Scattered Clouds19°C7 mph, NW41%10000m1008hPa76%
21-Apr-2024 09:00Few Clouds25°C11 mph, NW15%10000m1010hPa49%
21-Apr-2024 12:00Broken Clouds34°C9 mph, NW53%10000m1009hPa19%
21-Apr-2024 15:00Overcast Clouds39°C9 mph, NW100%10000m1006hPa11%
21-Apr-2024 18:00Broken Clouds35°C16 mph, W77%10000m1005hPa21%
21-Apr-2024 21:00Clear Sky25°C11 mph, NW4%10000m1008hPa44%
22-Apr-2024 00:00Clear Sky21°C11 mph, NW3%10000m1009hPa67%
22-Apr-2024 03:00Scattered Clouds19°C7 mph, NW50%10000m1008hPa81%
22-Apr-2024 06:00Broken Clouds17°C7 mph, NW69%10000m1009hPa91%
22-Apr-2024 09:00Scattered Clouds23°C7 mph, NW33%10000m1011hPa58%
22-Apr-2024 12:00Scattered Clouds32°C7 mph, W29%10000m1010hPa21%
22-Apr-2024 15:00Scattered Clouds38°C13 mph, W26%10000m1007hPa11%
22-Apr-2024 18:00Few Clouds32°C16 mph, W16%10000m1007hPa17%
22-Apr-2024 21:00Clear Sky21°C9 mph, W4%10000m1010hPa62%
23-Apr-2024 00:00Clear Sky20°C7 mph, NW2%10000m1011hPa71%
23-Apr-2024 03:00Clear Sky18°C7 mph, NW0%10000m1009hPa83%
23-Apr-2024 06:00Clear Sky17°C7 mph, NW0%10000m1010hPa91%
23-Apr-2024 09:00Clear Sky24°C7 mph, NW0%10000m1012hPa54%
23-Apr-2024 12:00Clear Sky33°C7 mph, W0%10000m1011hPa18%
23-Apr-2024 15:00Clear Sky38°C9 mph, W4%10000m1007hPa11%
23-Apr-2024 18:00Few Clouds33°C16 mph, W14%10000m1008hPa17%
23-Apr-2024 21:00Clear Sky22°C11 mph, W2%10000m1011hPa56%
24-Apr-2024 00:00Clear Sky21°C9 mph, NW2%10000m1012hPa62%
24-Apr-2024 03:00Few Clouds20°C7 mph, NW13%10000m1010hPa73%